Time;durP1;ratioP1;P1;durP2;ratioP2;P2;SDS_P1;SDS_P2;PMS_P1;PMS_P2;Temp;Humidity;BMP_temperature;BMP_pressure;BME280_temperature;BME280_humidity;BME280_pressure;Samples;Min_cycle;Max_cycle;Signal;HPM_P1;HPM_P2
2022/12/12 00:00:48;;;;;;;10.37;7.20;;;;;;;-3.10;81.69;96691.78;6267046;28;20240;-67
2022/12/12 00:03:50;;;;;;;10.00;7.00;;;;;;;-3.09;81.54;96685.69;6267502;28;20243;-67
2022/12/12 00:06:53;;;;;;;9.27;6.23;;;;;;;-3.09;82.47;96675.38;6265396;28;20219;-67
2022/12/12 00:09:55;;;;;;;10.27;6.97;;;;;;;-3.09;80.66;96679.69;6267741;28;20269;-66
2022/12/12 00:12:57;;;;;;;9.67;6.43;;;;;;;-3.12;80.97;96677.28;6267694;28;20863;-66
2022/12/12 00:15:59;;;;;;;9.03;6.07;;;;;;;-3.14;81.02;96679.06;6265896;28;20267;-67
2022/12/12 00:19:01;;;;;;;10.60;6.80;;;;;;;-3.18;81.54;96680.94;6265081;28;20243;-66
2022/12/12 00:22:03;;;;;;;8.70;6.57;;;;;;;-3.20;82.11;96685.34;6268565;28;20231;-66
2022/12/12 00:25:06;;;;;;;10.67;6.80;;;;;;;-3.23;81.66;96685.47;6266852;28;20230;-67
2022/12/12 00:28:08;;;;;;;9.47;7.00;;;;;;;-3.27;82.16;96694.22;6262193;28;20309;-67
2022/12/12 00:31:10;;;;;;;10.23;6.77;;;;;;;-3.28;82.67;96699.44;6266098;28;20284;-67
2022/12/12 00:34:12;;;;;;;11.03;7.03;;;;;;;-3.27;81.86;96696.81;6267390;28;20238;-68
2022/12/12 00:37:14;;;;;;;9.03;6.47;;;;;;;-3.30;82.13;96696.09;6264820;28;20317;-67
2022/12/12 00:40:16;;;;;;;9.53;7.13;;;;;;;-3.32;82.17;96701.31;6267071;28;20235;-66
2022/12/12 00:43:18;;;;;;;11.23;6.90;;;;;;;-3.36;81.70;96704.91;6265735;28;20689;-66
2022/12/12 00:46:22;;;;;;;9.13;6.37;;;;;;;-3.38;82.07;96717.03;6267615;28;20241;-66
2022/12/12 00:49:25;;;;;;;10.27;6.57;;;;;;;-3.40;82.18;96714.53;6269661;28;20230;-66
2022/12/12 00:52:28;;;;;;;10.87;6.90;;;;;;;-3.42;82.31;96718.91;6262903;28;20607;-66
2022/12/12 00:55:30;;;;;;;9.43;6.87;;;;;;;-3.42;82.16;96730.97;6249253;28;20234;-66
2022/12/12 00:58:32;;;;;;;10.77;7.10;;;;;;;-3.44;81.61;96728.44;6266394;28;20235;-66
2022/12/12 01:01:35;;;;;;;10.27;7.00;;;;;;;-3.49;81.33;96729.50;6262191;28;20287;-67
2022/12/12 01:04:38;;;;;;;9.93;6.50;;;;;;;-3.53;81.21;96739.13;6247906;28;20230;-67
2022/12/12 01:07:41;;;;;;;11.83;6.43;;;;;;;-3.56;81.41;96734.09;6267383;28;20231;-66
2022/12/12 01:10:43;;;;;;;10.80;6.57;;;;;;;-3.62;81.50;96730.94;6265474;28;20700;-66
2022/12/12 01:13:48;;;;;;;10.23;7.30;;;;;;;-3.67;81.79;96725.94;6247776;28;20724;-66
2022/12/12 01:16:50;;;;;;;10.80;6.80;;;;;;;-3.70;82.52;96731.25;6264949;28;20314;-67
2022/12/12 01:19:54;;;;;;;8.73;6.20;;;;;;;-3.69;81.57;96744.97;6266071;28;20234;-66
2022/12/12 01:22:56;;;;;;;9.50;6.47;;;;;;;-3.76;81.99;96739.19;6262527;28;20227;-66
2022/12/12 01:26:03;;;;;;;9.07;6.03;;;;;;;-3.73;79.42;96726.19;6265354;28;20222;-66
2022/12/12 01:29:05;;;;;;;8.77;6.17;;;;;;;-3.73;80.00;96727.03;6262373;28;20238;-66
2022/12/12 01:32:07;;;;;;;8.83;5.70;;;;;;;-3.76;79.74;96723.72;6266630;28;20241;-67
2022/12/12 01:35:10;;;;;;;8.97;6.03;;;;;;;-3.85;80.37;96724.94;6264620;28;20223;-67
2022/12/12 01:38:12;;;;;;;10.37;6.67;;;;;;;-3.94;80.85;96722.72;6247965;28;20722;-67
2022/12/12 01:41:16;;;;;;;7.63;5.50;;;;;;;-3.97;80.45;96720.25;6266426;28;20701;-66
2022/12/12 01:44:57;;;;;;;8.00;5.67;;;;;;;-4.01;81.08;96723.00;6261064;28;20234;-66
2022/12/12 01:47:59;;;;;;;8.43;6.47;;;;;;;-4.07;81.32;96721.50;6151293;28;20233;-66
2022/12/12 01:51:19;;;;;;;10.00;6.43;;;;;;;-4.10;80.95;96717.31;6150496;28;20724;-66
2022/12/12 01:54:29;;;;;;;10.63;6.90;;;;;;;-4.11;81.51;96713.06;6127499;28;20229;-66
2022/12/12 01:57:36;;;;;;;10.40;6.13;;;;;;;-4.08;81.17;96717.22;6152997;28;20772;-66
2022/12/12 02:00:39;;;;;;;8.93;6.17;;;;;;;-4.06;81.16;96720.59;6130024;28;20264;-66
2022/12/12 02:03:42;;;;;;;9.23;6.20;;;;;;;-4.01;80.90;96718.69;6152149;28;20233;-66
2022/12/12 02:06:46;;;;;;;7.43;6.20;;;;;;;-3.99;80.59;96719.44;6151964;28;20218;-66
2022/12/12 02:09:49;;;;;;;8.43;6.07;;;;;;;-4.01;80.05;96720.44;6140867;28;20287;-66
2022/12/12 02:13:05;;;;;;;9.63;6.13;;;;;;;-4.05;80.86;96718.84;6157110;28;20229;-66
2022/12/12 02:16:44;;;;;;;9.00;6.17;;;;;;;-4.06;81.21;96723.16;6140653;28;20293;-66
2022/12/12 02:19:49;;;;;;;8.20;5.43;;;;;;;-4.04;80.74;96718.81;6247971;28;20619;-66
2022/12/12 02:23:15;;;;;;;9.00;5.93;;;;;;;-4.06;81.15;96719.75;6261942;28;20616;-66
2022/12/12 02:26:40;;;;;;;11.67;6.13;;;;;;;-4.14;81.36;96725.19;6266692;28;20226;-66
2022/12/12 02:30:00;;;;;;;8.83;5.30;;;;;;;-4.18;81.24;96721.91;6269906;28;20320;-66
2022/12/12 02:33:19;;;;;;;7.73;5.47;;;;;;;-4.19;82.15;96727.94;6246099;28;20599;-66
2022/12/12 02:36:39;;;;;;;8.53;5.40;;;;;;;-4.11;81.27;96731.09;6265577;28;20261;-66
2022/12/12 02:40:06;;;;;;;8.30;6.00;;;;;;;-4.04;80.87;96734.25;6267611;28;20232;-66
2022/12/12 02:43:08;;;;;;;7.37;5.10;;;;;;;-3.99;80.93;96729.75;6253013;28;20253;-66
2022/12/12 02:46:51;;;;;;;7.43;5.43;;;;;;;-3.89;79.95;96735.44;6267532;28;20304;-66
2022/12/12 02:50:10;;;;;;;9.67;4.80;;;;;;;-3.91;80.24;96740.63;6264928;28;20238;-66
2022/12/12 02:53:17;;;;;;;7.83;5.27;;;;;;;-3.87;80.01;96739.59;6267395;28;20219;-66
2022/12/12 02:56:43;;;;;;;7.47;5.27;;;;;;;-3.86;80.51;96736.13;6263458;28;20301;-66
2022/12/12 02:59:54;;;;;;;6.57;4.73;;;;;;;-3.89;80.43;96740.59;6268201;28;20238;-66
2022/12/12 03:10:23;;;;;;;6.83;4.70;;;;;;;-4.09;80.97;96749.88;6269109;28;20223;-66
2022/12/12 03:13:44;;;;;;;7.13;4.63;;;;;;;-4.16;81.68;96752.75;6233222;28;20682;-66
2022/12/12 03:16:58;;;;;;;8.17;5.70;;;;;;;-4.12;80.30;96756.91;6260478;28;20271;-66
2022/12/12 03:20:24;;;;;;;7.77;5.37;;;;;;;-4.13;80.08;96757.81;6265416;28;20760;-66
2022/12/12 03:23:31;;;;;;;8.07;5.03;;;;;;;-4.18;80.49;96751.97;6265304;28;20321;-66
2022/12/12 03:26:59;;;;;;;6.97;5.13;;;;;;;-4.21;80.85;96762.41;6264675;28;20230;-66
2022/12/12 03:30:06;;;;;;;8.17;5.80;;;;;;;-4.30;80.46;96755.84;6266215;28;20318;-66
2022/12/12 03:33:11;;;;;;;8.70;5.83;;;;;;;-4.31;81.10;96768.78;6270599;28;20582;-66
2022/12/12 03:36:26;;;;;;;9.13;6.10;;;;;;;-4.28;80.27;96748.88;6264699;28;20214;-66
2022/12/12 03:39:41;;;;;;;8.67;5.83;;;;;;;-4.27;80.86;96749.72;6249350;28;20230;-66
2022/12/12 03:42:55;;;;;;;9.03;5.77;;;;;;;-4.28;81.48;96743.75;6262015;28;20599;-66
2022/12/12 03:46:13;;;;;;;9.03;5.83;;;;;;;-4.21;81.88;96747.78;6244643;28;20694;-66
2022/12/12 03:49:44;;;;;;;8.43;5.93;;;;;;;-4.19;80.68;96774.31;6249227;28;20364;-66
2022/12/12 03:53:07;;;;;;;9.57;6.13;;;;;;;-4.11;80.50;96767.16;6264121;28;20239;-66
2022/12/12 03:56:14;;;;;;;8.00;5.20;;;;;;;-4.09;80.75;96749.03;6268240;28;20594;-66
2022/12/12 03:59:36;;;;;;;11.03;6.23;;;;;;;-4.07;80.43;96748.97;6268449;28;20283;-66
2022/12/12 04:02:55;;;;;;;8.40;5.97;;;;;;;-4.03;81.55;96751.41;6272977;28;20307;-66
2022/12/12 04:06:28;;;;;;;8.50;5.63;;;;;;;-4.04;80.37;96751.47;6261150;28;20608;-66
2022/12/12 04:13:06;;;;;;;9.03;6.03;;;;;;;-3.97;80.81;96748.59;6267450;28;20264;-66
2022/12/12 04:16:11;;;;;;;8.23;5.80;;;;;;;-3.98;79.77;96757.22;6257836;28;20238;-66
2022/12/12 04:23:14;;;;;;;9.37;6.37;;;;;;;-3.95;80.77;96754.53;6267402;28;20240;-66
2022/12/12 04:26:40;;;;;;;10.03;6.83;;;;;;;-3.93;81.15;96745.00;6265950;28;20687;-66
2022/12/12 04:29:54;;;;;;;8.93;5.87;;;;;;;-3.97;80.63;96750.31;6246715;28;20227;-66
2022/12/12 04:32:58;;;;;;;10.23;6.53;;;;;;;-4.05;81.23;96754.94;6263117;28;20364;-66
2022/12/12 04:36:03;;;;;;;8.87;5.80;;;;;;;-4.10;81.97;96755.13;6267820;28;20222;-66
2022/12/12 04:39:08;;;;;;;10.27;6.20;;;;;;;-4.16;82.22;96757.91;6246898;28;20246;-66
2022/12/12 04:42:16;;;;;;;9.13;6.33;;;;;;;-4.23;82.55;96751.31;6261893;28;20579;-66
2022/12/12 04:45:23;;;;;;;10.93;5.80;;;;;;;-4.32;82.52;96764.53;6247408;28;20211;-66
2022/12/12 04:48:33;;;;;;;11.27;6.63;;;;;;;-4.36;83.80;96755.22;6266538;28;20230;-66
2022/12/12 04:51:44;;;;;;;10.00;6.33;;;;;;;-4.36;82.93;96763.78;6263938;28;20317;-66
2022/12/12 04:54:59;;;;;;;11.10;6.77;;;;;;;-4.35;82.41;96757.75;6228714;28;20259;-66
2022/12/12 04:58:03;;;;;;;10.63;6.50;;;;;;;-4.35;82.49;96759.47;6264043;28;20235;-66
2022/12/12 05:01:32;;;;;;;11.27;6.57;;;;;;;-4.32;82.57;96757.63;6264294;28;20702;-66
2022/12/12 05:05:00;;;;;;;9.20;6.57;;;;;;;-4.37;81.66;96762.09;6264862;28;20608;-66
2022/12/12 05:08:07;;;;;;;10.13;6.30;;;;;;;-4.40;81.85;96763.97;6247443;28;20719;-67
2022/12/12 05:11:11;;;;;;;11.57;5.90;;;;;;;-4.41;81.71;96760.56;6266754;28;20313;-66
2022/12/12 05:14:14;;;;;;;9.47;6.30;;;;;;;-4.41;81.58;96751.97;6261502;28;20237;-67
2022/12/12 05:17:26;;;;;;;9.43;6.40;;;;;;;-4.37;81.48;96761.25;6266196;28;20264;-66
2022/12/12 05:20:29;;;;;;;10.80;7.37;;;;;;;-4.38;80.90;96757.00;6268377;28;20393;-66
2022/12/12 05:23:31;;;;;;;9.83;6.23;;;;;;;-4.37;81.63;96761.25;6244139;28;20233;-66
2022/12/12 05:26:36;;;;;;;8.70;5.83;;;;;;;-4.37;81.03;96758.69;6251972;28;20648;-66
2022/12/12 05:29:38;;;;;;;10.33;6.47;;;;;;;-4.38;81.51;96760.41;6264681;28;20701;-66
2022/12/12 05:32:40;;;;;;;9.17;6.40;;;;;;;-4.37;81.00;96768.97;6265161;28;20218;-66
2022/12/12 05:35:42;;;;;;;10.87;7.07;;;;;;;-4.40;82.13;96762.22;6242321;28;20360;-66
2022/12/12 05:38:44;;;;;;;9.30;6.43;;;;;;;-4.33;81.82;96770.56;6264732;28;20229;-66
2022/12/12 05:41:48;;;;;;;10.17;6.77;;;;;;;-4.33;81.22;96775.72;6264250;28;20227;-66
2022/12/12 05:44:50;;;;;;;10.10;6.47;;;;;;;-4.33;80.98;96784.28;6266475;28;20305;-66
2022/12/12 05:47:52;;;;;;;9.80;6.73;;;;;;;-4.27;81.44;96775.47;6261934;28;20229;-66
2022/12/12 05:50:54;;;;;;;9.30;6.10;;;;;;;-4.27;81.14;96776.31;6261645;28;20325;-66
2022/12/12 05:53:56;;;;;;;10.30;6.73;;;;;;;-4.22;79.86;96776.16;6265349;28;20843;-66
2022/12/12 05:56:58;;;;;;;10.27;6.67;;;;;;;-4.19;79.65;96774.31;6264456;28;20314;-65
2022/12/12 06:00:00;;;;;;;12.93;6.97;;;;;;;-4.19;79.79;96773.47;6263756;28;20326;-66
2022/12/12 06:03:05;;;;;;;9.97;6.70;;;;;;;-4.21;80.49;96773.53;6248495;28;20238;-65
2022/12/12 06:06:08;;;;;;;9.53;6.37;;;;;;;-4.20;80.16;96771.81;6246879;28;20225;-65
2022/12/12 06:09:10;;;;;;;8.87;6.13;;;;;;;-4.18;80.72;96767.41;6266875;28;20674;-66
2022/12/12 06:12:12;;;;;;;9.87;6.33;;;;;;;-4.16;81.00;96773.34;6246692;28;20341;-65
2022/12/12 06:15:14;;;;;;;7.93;6.13;;;;;;;-4.13;80.23;96775.84;6263285;28;20226;-67
2022/12/12 06:18:16;;;;;;;10.30;6.50;;;;;;;-4.11;80.97;96774.03;6266451;28;20324;-66
2022/12/12 06:21:19;;;;;;;9.50;6.40;;;;;;;-4.09;80.63;96787.69;6264539;28;20242;-66
2022/12/12 06:24:21;;;;;;;10.60;6.47;;;;;;;-4.06;80.79;96784.16;6261896;28;20231;-66
2022/12/12 06:27:23;;;;;;;11.20;6.70;;;;;;;-4.01;81.40;96792.56;6247115;28;20352;-66
2022/12/12 06:30:25;;;;;;;9.17;6.40;;;;;;;-3.96;81.42;96800.97;6264226;28;20230;-66
2022/12/12 06:33:28;;;;;;;11.40;7.07;;;;;;;-3.93;80.41;96793.97;6265465;28;20593;-66
2022/12/12 06:36:30;;;;;;;10.07;6.87;;;;;;;-3.89;79.47;96789.53;6264029;28;20234;-66
2022/12/12 06:39:32;;;;;;;11.27;7.00;;;;;;;-3.88;80.04;96804.09;6264171;28;20765;-66
2022/12/12 06:42:34;;;;;;;11.40;7.50;;;;;;;-3.86;80.28;96803.13;6265720;28;20242;-66
2022/12/12 06:45:36;;;;;;;10.57;7.00;;;;;;;-3.86;80.77;96795.41;6258959;28;20236;-66
2022/12/12 06:48:38;;;;;;;10.97;6.70;;;;;;;-3.86;80.42;96799.72;6247609;28;20230;-66
2022/12/12 06:51:42;;;;;;;10.97;7.00;;;;;;;-3.86;80.12;96810.03;6266872;28;20234;-66
2022/12/12 06:54:45;;;;;;;10.00;7.13;;;;;;;-3.81;79.90;96821.88;6269802;28;20238;-66
2022/12/12 06:57:47;;;;;;;10.23;6.60;;;;;;;-3.84;79.46;96821.97;6248700;28;20270;-66
2022/12/12 07:00:53;;;;;;;12.53;8.07;;;;;;;-3.80;79.55;96830.44;6251929;28;20320;-66
2022/12/12 07:03:55;;;;;;;12.93;7.23;;;;;;;-3.74;79.30;96833.63;6269767;28;20706;-66
2022/12/12 07:06:57;;;;;;;9.73;6.70;;;;;;;-3.72;78.98;96838.72;6266679;28;20231;-66
2022/12/12 07:09:59;;;;;;;12.07;7.30;;;;;;;-3.71;77.72;96837.81;6256969;28;20586;-66
2022/12/12 07:13:01;;;;;;;10.07;7.27;;;;;;;-3.67;78.40;96848.84;6251212;28;20643;-66
2022/12/12 07:16:03;;;;;;;9.87;6.67;;;;;;;-3.63;78.76;96846.09;6269099;28;20226;-66
2022/12/12 07:19:06;;;;;;;11.57;7.87;;;;;;;-3.56;78.71;96846.69;6269617;28;20256;-66
2022/12/12 07:22:08;;;;;;;10.57;7.07;;;;;;;-3.52;78.39;96841.38;6267227;28;20230;-66
2022/12/12 07:25:11;;;;;;;9.67;7.13;;;;;;;-3.45;78.33;96837.66;6264387;28;20222;-66
2022/12/12 07:28:14;;;;;;;12.87;7.60;;;;;;;-3.41;77.38;96833.25;6270134;28;20313;-67
2022/12/12 07:31:20;;;;;;;11.70;7.27;;;;;;;-3.35;77.99;96839.00;6266918;28;20724;-67
2022/12/12 07:34:22;;;;;;;9.23;7.07;;;;;;;-3.22;78.28;96843.66;6251482;28;20234;-67
2022/12/12 07:37:24;;;;;;;11.60;6.87;;;;;;;-3.22;77.04;96839.34;6266902;28;20238;-66
2022/12/12 07:40:26;;;;;;;10.77;6.53;;;;;;;-3.17;76.83;96842.56;6250642;28;20369;-66
2022/12/12 07:43:28;;;;;;;10.53;6.47;;;;;;;-3.10;76.66;96863.84;6250267;28;20369;-66
2022/12/12 07:46:34;;;;;;;11.73;7.00;;;;;;;-3.03;77.04;96854.94;6258342;28;20567;-66
2022/12/12 07:49:36;;;;;;;9.63;7.17;;;;;;;-3.02;75.80;96857.47;6269102;28;20231;-66
2022/12/12 07:52:38;;;;;;;10.87;7.17;;;;;;;-2.99;76.18;96865.06;6266861;28;20595;-66
2022/12/12 07:55:40;;;;;;;10.30;6.87;;;;;;;-3.03;75.06;96857.53;6267218;28;20231;-66
2022/12/12 07:58:43;;;;;;;9.07;6.53;;;;;;;-2.95;75.21;96859.78;6267849;28;20281;-66
2022/12/12 08:01:46;;;;;;;11.20;7.07;;;;;;;-2.88;74.98;96863.81;6266197;28;20231;-67
2022/12/12 08:04:48;;;;;;;10.67;6.83;;;;;;;-2.78;74.89;96863.38;6249479;28;20245;-67
2022/12/12 08:07:50;;;;;;;15.43;6.90;;;;;;;-2.61;74.67;96866.13;6266160;28;20322;-66
2022/12/12 08:10:52;;;;;;;11.73;7.47;;;;;;;-2.56;74.41;96872.81;6266819;28;20237;-66
2022/12/12 08:13:54;;;;;;;9.57;6.73;;;;;;;-2.56;73.59;96889.16;6265109;28;20673;-66
2022/12/12 08:16:56;;;;;;;10.43;6.80;;;;;;;-2.65;73.79;96890.38;6266813;28;20716;-66
2022/12/12 08:19:58;;;;;;;11.13;6.70;;;;;;;-2.69;73.94;96888.81;6248139;28;20218;-66
2022/12/12 08:23:00;;;;;;;9.87;6.97;;;;;;;-2.82;73.09;96892.81;6266162;28;20701;-66
2022/12/12 08:26:10;;;;;;;10.93;7.20;;;;;;;-2.81;73.90;96897.06;6261789;28;20307;-66
2022/12/12 08:29:12;;;;;;;11.33;6.80;;;;;;;-2.75;73.79;96899.41;6249054;28;20222;-66
2022/12/12 08:32:15;;;;;;;11.40;6.70;;;;;;;-2.69;74.26;96899.13;6268332;28;20705;-66
2022/12/12 08:35:18;;;;;;;11.37;7.23;;;;;;;-2.65;73.14;96911.03;6265628;28;20253;-66
2022/12/12 08:38:21;;;;;;;11.87;7.53;;;;;;;-2.55;73.51;96915.81;6249505;28;20234;-66
2022/12/12 08:41:24;;;;;;;11.07;7.33;;;;;;;-2.44;73.88;96922.25;6232208;28;20321;-66
2022/12/12 08:44:26;;;;;;;10.70;7.23;;;;;;;-2.45;71.69;96917.97;6266525;28;20222;-66
2022/12/12 08:47:28;;;;;;;10.33;7.47;;;;;;;-2.41;71.75;96923.88;6249385;28;20227;-66
2022/12/12 08:50:30;;;;;;;10.70;7.00;;;;;;;-2.28;72.15;96922.44;6249479;28;20234;-66
2022/12/12 08:53:32;;;;;;;10.80;7.03;;;;;;;-2.15;72.43;96928.78;6246995;28;20725;-66
2022/12/12 08:56:34;;;;;;;10.43;7.40;;;;;;;-2.28;71.53;96927.59;6267810;28;20713;-66
2022/12/12 08:59:37;;;;;;;9.40;6.60;;;;;;;-2.27;71.54;96934.44;6245835;28;20570;-66
2022/12/12 09:02:39;;;;;;;9.43;6.57;;;;;;;-2.15;70.54;96927.94;6268821;28;20369;-66
2022/12/12 09:05:45;;;;;;;9.77;6.90;;;;;;;-1.95;70.37;96927.94;6263219;28;20238;-66
2022/12/12 09:08:48;;;;;;;9.20;6.70;;;;;;;-1.87;70.37;96924.09;6242695;28;20760;-66
2022/12/12 09:11:50;;;;;;;9.93;6.63;;;;;;;-1.83;69.64;96926.56;6267756;28;20225;-66
2022/12/12 09:14:52;;;;;;;9.93;6.50;;;;;;;-1.86;70.04;96930.13;6263343;28;20313;-66
2022/12/12 09:17:54;;;;;;;11.37;6.80;;;;;;;-1.91;69.93;96925.16;6261779;28;20234;-66
2022/12/12 09:20:58;;;;;;;9.53;5.93;;;;;;;-1.64;68.25;96933.47;6264527;28;20335;-66
2022/12/12 09:24:00;;;;;;;10.77;7.00;;;;;;;-1.62;66.71;96929.06;6265788;28;20235;-66
2022/12/12 09:27:03;;;;;;;10.13;6.83;;;;;;;-1.26;67.08;96930.91;6267833;28;20368;-66
2022/12/12 09:30:06;;;;;;;9.37;6.30;;;;;;;-1.03;65.99;96938.47;6261381;28;20380;-66
2022/12/12 09:33:09;;;;;;;10.40;6.27;;;;;;;-1.28;65.01;96933.56;6263336;28;20732;-66
2022/12/12 09:36:12;;;;;;;11.97;7.00;;;;;;;-1.30;66.11;96937.16;6262019;28;20691;-66
2022/12/12 09:39:14;;;;;;;10.27;6.47;;;;;;;-1.25;65.46;96940.34;6261838;28;20219;-66
2022/12/12 09:42:24;;;;;;;12.93;6.67;;;;;;;-1.67;66.08;96948.25;6266316;28;20706;-66
2022/12/12 09:45:28;;;;;;;10.60;6.23;;;;;;;-1.59;65.51;96949.59;6259970;28;20228;-66
2022/12/12 09:48:40;;;;;;;9.13;6.47;;;;;;;-1.62;67.34;96952.34;6265511;28;20611;-67
2022/12/12 09:51:45;;;;;;;9.07;6.70;;;;;;;-1.74;67.20;96952.88;6266796;28;20284;-67
2022/12/12 09:54:47;;;;;;;8.50;6.07;;;;;;;-1.81;67.58;96959.22;6246519;28;20719;-66
2022/12/12 09:58:01;;;;;;;9.67;6.00;;;;;;;-1.83;67.73;96970.53;6266660;28;20650;-67
2022/12/12 10:01:57;;;;;;;12.60;6.70;;;;;;;-2.02;66.26;96953.22;6263339;28;20612;-66
2022/12/12 10:05:22;;;;;;;11.70;6.67;;;;;;;-2.13;67.30;96955.41;6171083;28;20303;-66
2022/12/12 10:08:38;;;;;;;11.23;6.50;;;;;;;-2.00;67.93;96950.56;6131664;28;20717;-66
2022/12/12 10:11:53;;;;;;;10.43;6.80;;;;;;;-1.86;67.61;96955.97;6258093;28;20268;-66
2022/12/12 10:15:05;;;;;;;7.63;5.40;;;;;;;-1.74;68.53;96962.38;6262990;28;20255;-66
2022/12/12 10:18:45;;;;;;;9.87;6.10;;;;;;;-1.49;68.59;96957.78;6242158;28;20223;-66
2022/12/12 10:21:51;;;;;;;9.97;6.50;;;;;;;-1.33;67.65;96964.00;6260547;28;20241;-66
2022/12/12 10:25:01;;;;;;;9.73;6.60;;;;;;;-1.16;68.04;96951.13;6264670;28;20246;-66
2022/12/12 10:28:30;;;;;;;9.70;6.10;;;;;;;-1.03;66.58;96946.22;6268347;28;20733;-66
2022/12/12 10:31:50;;;;;;;8.33;6.30;;;;;;;-0.99;66.32;96946.91;6245264;28;20226;-66
2022/12/12 10:35:17;;;;;;;9.40;6.20;;;;;;;-0.98;65.21;96954.59;6266388;28;20230;-66
2022/12/12 10:38:45;;;;;;;8.80;5.93;;;;;;;-0.97;64.69;96953.69;6263416;28;20226;-66
2022/12/12 10:42:13;;;;;;;8.83;6.03;;;;;;;-0.92;64.42;96940.56;6264534;28;20239;-66
2022/12/12 10:45:50;;;;;;;9.93;6.27;;;;;;;-0.72;65.39;96950.81;6269355;28;20271;-66
2022/12/12 10:48:53;;;;;;;11.30;7.00;;;;;;;-0.49;65.27;96944.50;6248199;28;20242;-66
2022/12/12 10:51:57;;;;;;;10.07;6.33;;;;;;;-0.69;65.66;96942.03;6268299;28;20746;-66
2022/12/12 10:55:00;;;;;;;7.97;5.53;;;;;;;-0.70;66.13;96937.81;6266568;28;20234;-66
2022/12/12 10:58:04;;;;;;;10.10;6.33;;;;;;;-0.54;65.94;96949.94;6269035;28;20321;-66
2022/12/12 11:01:19;;;;;;;12.43;6.50;;;;;;;-0.77;65.70;96948.44;6251206;28;20640;-66
2022/12/12 11:04:39;;;;;;;8.80;5.83;;;;;;;-0.80;66.08;96938.22;6266594;28;20230;-66
2022/12/12 11:07:49;;;;;;;9.80;6.70;;;;;;;-0.87;66.85;96939.41;6269820;28;20271;-66
2022/12/12 11:11:17;;;;;;;9.20;6.63;;;;;;;-0.62;67.00;96933.09;6268790;28;20234;-67
2022/12/12 11:14:30;;;;;;;10.67;6.83;;;;;;;-0.68;65.49;96946.31;6266441;28;20780;-66
2022/12/12 11:17:34;;;;;;;8.73;5.90;;;;;;;-0.59;65.48;96940.69;6263654;28;20311;-66
2022/12/12 11:20:44;;;;;;;8.73;6.10;;;;;;;-0.56;65.24;96943.13;6271339;28;20229;-67
2022/12/12 11:23:52;;;;;;;10.20;6.43;;;;;;;-0.21;64.93;96937.09;6251821;28;20607;-66
2022/12/12 11:26:58;;;;;;;9.23;6.00;;;;;;;0.17;63.87;96934.31;6266631;28;20599;-67
2022/12/12 11:30:06;;;;;;;10.43;6.10;;;;;;;0.39;63.93;96932.31;6264178;28;20235;-67
2022/12/12 11:33:19;;;;;;;10.83;6.90;;;;;;;0.40;62.78;96936.56;6269569;28;20229;-66
2022/12/12 11:36:27;;;;;;;9.13;6.43;;;;;;;0.15;61.94;96942.19;6249878;28;20221;-66
2022/12/12 11:39:39;;;;;;;9.43;6.47;;;;;;;0.30;63.41;96951.75;6250149;28;20813;-66
2022/12/12 11:42:42;;;;;;;8.93;6.83;;;;;;;0.25;63.09;96940.81;6269111;28;20666;-67
2022/12/12 11:46:04;;;;;;;9.03;6.60;;;;;;;0.12;64.12;96950.13;6261217;28;20583;-66
2022/12/12 11:49:17;;;;;;;9.03;6.60;;;;;;;0.38;63.87;96955.75;6251067;28;20657;-66
2022/12/12 11:52:23;;;;;;;10.87;7.03;;;;;;;0.36;63.13;96948.03;6263817;28;20231;-67
2022/12/12 11:55:40;;;;;;;9.30;6.77;;;;;;;0.29;63.43;96957.91;6267220;28;20276;-66
2022/12/12 11:58:51;;;;;;;9.10;6.13;;;;;;;0.35;63.24;96954.13;6267595;28;20736;-67
2022/12/12 12:02:28;;;;;;;9.03;6.13;;;;;;;0.33;62.69;96956.81;6248877;28;20264;-66
2022/12/12 12:06:03;;;;;;;10.40;7.43;;;;;;;0.08;65.37;96963.34;6109648;28;20242;-67
2022/12/12 12:09:11;;;;;;;10.17;7.13;;;;;;;0.59;63.90;96962.44;6123250;28;20703;-68
2022/12/12 12:12:16;;;;;;;9.57;6.37;;;;;;;0.57;63.28;96972.88;6121226;28;20871;-67
2022/12/12 12:15:39;;;;;;;8.87;6.60;;;;;;;0.14;63.36;96960.41;6123367;28;20276;-67
2022/12/12 12:18:56;;;;;;;8.80;6.33;;;;;;;-0.27;65.53;96955.53;6119927;28;20306;-67
2022/12/12 12:22:13;;;;;;;10.43;6.90;;;;;;;-0.15;64.38;96957.53;6117489;28;20617;-67
2022/12/12 12:25:36;;;;;;;9.53;6.50;;;;;;;-0.01;64.83;96954.25;6124586;28;20242;-66
2022/12/12 12:29:00;;;;;;;8.87;6.10;;;;;;;0.19;64.45;96946.31;6109915;28;20710;-67
2022/12/12 12:32:07;;;;;;;11.07;6.57;;;;;;;0.16;64.26;96953.41;6122752;28;20755;-66
2022/12/12 12:35:29;;;;;;;9.93;6.50;;;;;;;0.16;64.32;96958.59;6119647;28;20223;-66
2022/12/12 12:38:50;;;;;;;10.73;7.00;;;;;;;-0.20;65.98;96954.31;6155842;28;20218;-67
2022/12/12 12:42:21;;;;;;;9.47;6.33;;;;;;;-0.16;66.96;96950.66;6268631;28;20239;-67
2022/12/12 12:45:56;;;;;;;9.40;6.17;;;;;;;-0.34;66.40;96961.94;6257958;28;20219;-66
2022/12/12 12:49:09;;;;;;;11.03;6.67;;;;;;;-0.33;66.80;96950.66;6261024;28;20247;-66
2022/12/12 12:52:20;;;;;;;10.37;6.53;;;;;;;-0.51;67.00;96959.31;6261284;28;20222;-67
2022/12/12 12:55:31;;;;;;;10.17;6.60;;;;;;;-0.58;67.86;96965.69;6265358;28;20289;-66
2022/12/12 12:58:40;;;;;;;10.37;6.67;;;;;;;-0.86;68.70;96956.63;6264396;28;20449;-66
2022/12/12 13:01:47;;;;;;;12.17;7.30;;;;;;;-0.86;68.64;96958.38;6265986;28;20324;-66
2022/12/12 13:05:35;;;;;;;8.73;6.07;;;;;;;-0.93;69.92;96964.78;6261581;28;20243;-67
2022/12/12 13:08:59;;;;;;;10.17;7.17;;;;;;;-1.43;70.06;96970.47;6230870;28;20301;-66
2022/12/12 13:12:27;;;;;;;11.40;7.00;;;;;;;-1.64;72.42;96961.91;6264467;28;20247;-66
2022/12/12 13:15:33;;;;;;;11.23;7.23;;;;;;;-1.75;73.85;96960.69;6262746;28;20226;-66
2022/12/12 13:18:36;;;;;;;12.77;7.77;;;;;;;-2.02;73.59;96963.56;6264455;28;20227;-66
2022/12/12 13:21:57;;;;;;;10.10;7.13;;;;;;;-2.17;75.20;96976.25;6265393;28;20599;-66
2022/12/12 13:25:17;;;;;;;13.73;7.97;;;;;;;-2.26;76.54;96977.47;6266766;28;20263;-66
2022/12/12 13:28:31;;;;;;;11.90;8.03;;;;;;;-2.33;77.93;96978.63;6247666;28;20646;-66
2022/12/12 13:31:45;;;;;;;13.53;7.67;;;;;;;-2.36;78.56;96965.84;6264108;28;20754;-66
2022/12/12 13:34:52;;;;;;;13.63;7.30;;;;;;;-2.35;78.04;96978.69;6270492;28;20238;-66
2022/12/12 13:37:55;;;;;;;14.03;7.97;;;;;;;-2.22;78.22;96971.28;6266213;28;20230;-66
2022/12/12 13:41:00;;;;;;;11.43;8.13;;;;;;;-2.16;78.53;96970.19;6250274;28;20256;-66
2022/12/12 13:44:02;;;;;;;13.03;8.00;;;;;;;-2.18;78.53;96978.00;6266490;28;20319;-66
2022/12/12 13:47:22;;;;;;;10.93;7.63;;;;;;;-2.31;77.99;96995.78;6264420;28;20218;-66
2022/12/12 13:50:24;;;;;;;12.07;7.77;;;;;;;-2.37;79.05;96995.16;6264482;28;20325;-66
2022/12/12 13:53:26;;;;;;;13.80;8.73;;;;;;;-2.35;79.00;96989.03;6266370;28;20258;-66
2022/12/12 13:56:33;;;;;;;13.63;8.00;;;;;;;-2.43;80.31;96988.50;6264542;28;20337;-66
2022/12/12 14:00:06;;;;;;;11.50;7.87;;;;;;;-2.53;79.78;96996.69;6260725;28;20258;-66
2022/12/12 14:03:23;;;;;;;14.47;8.13;;;;;;;-2.41;79.67;96989.28;6155978;28;20265;-66
2022/12/12 14:06:28;;;;;;;11.57;8.10;;;;;;;-2.43;80.60;96987.66;6159521;28;20234;-66
2022/12/12 14:09:36;;;;;;;13.97;8.17;;;;;;;-2.51;80.56;97005.22;6158861;28;20265;-66
2022/12/12 14:12:50;;;;;;;12.33;7.87;;;;;;;-2.58;80.51;97004.59;6160861;28;20237;-66
2022/12/12 14:16:15;;;;;;;12.70;8.10;;;;;;;-2.72;82.95;96993.97;6160178;28;20237;-66
2022/12/12 14:19:35;;;;;;;13.00;8.37;;;;;;;-2.79;82.27;97000.25;6161296;28;20315;-66
2022/12/12 14:22:37;;;;;;;13.40;8.03;;;;;;;-2.78;82.44;97007.94;6160309;28;20328;-66
2022/12/12 14:25:40;;;;;;;13.20;8.77;;;;;;;-2.77;82.43;97004.47;6159698;28;20225;-66
2022/12/12 14:28:42;;;;;;;12.63;8.30;;;;;;;-2.72;81.85;97010.31;6160255;28;20233;-66
2022/12/12 14:32:26;;;;;;;11.57;7.93;;;;;;;-2.80;80.72;97011.50;6143705;28;20242;-66
2022/12/12 14:35:45;;;;;;;11.80;8.30;;;;;;;-2.86;81.17;97014.31;6158939;28;20321;-66
2022/12/12 14:39:20;;;;;;;13.77;8.27;;;;;;;-2.92;80.81;97007.66;6197937;28;20230;-67
2022/12/12 14:42:42;;;;;;;13.43;7.97;;;;;;;-2.99;80.36;97004.44;6237861;28;20728;-66
2022/12/12 14:46:05;;;;;;;13.43;7.77;;;;;;;-3.07;80.15;97001.31;6268001;28;20238;-67
2022/12/12 14:49:16;;;;;;;15.10;8.30;;;;;;;-3.11;79.63;97004.91;6273914;28;20341;-66
2022/12/12 14:52:22;;;;;;;10.87;7.40;;;;;;;-3.13;78.72;97013.63;6273862;28;20330;-66
2022/12/12 14:55:24;;;;;;;13.07;7.93;;;;;;;-3.17;78.89;97012.03;6274484;28;20254;-66
2022/12/12 14:58:32;;;;;;;13.30;8.33;;;;;;;-3.23;78.51;97013.09;6273981;28;20591;-66
2022/12/12 15:01:42;;;;;;;12.57;7.53;;;;;;;-3.29;79.01;97015.06;6255962;28;20244;-66